sensor_id;sensor_type;location;lat;lon;timestamp;P1;durP1;ratioP1;P2;durP2;ratioP2
43817;SDS011;29868;47.360;18.984;2023-03-31T00:00:41;15.15;;;10.75;;
43817;SDS011;29868;47.360;18.984;2023-03-31T00:03:07;17.15;;;10.43;;
43817;SDS011;29868;47.360;18.984;2023-03-31T00:05:37;19.95;;;12.00;;
43817;SDS011;29868;47.360;18.984;2023-03-31T00:08:02;23.00;;;12.68;;
43817;SDS011;29868;47.360;18.984;2023-03-31T00:10:33;20.35;;;12.13;;
43817;SDS011;29868;47.360;18.984;2023-03-31T00:12:59;19.23;;;12.57;;
43817;SDS011;29868;47.360;18.984;2023-03-31T00:15:26;18.20;;;12.57;;
43817;SDS011;29868;47.360;18.984;2023-03-31T00:17:52;19.63;;;12.38;;
43817;SDS011;29868;47.360;18.984;2023-03-31T00:20:17;19.55;;;12.50;;
43817;SDS011;29868;47.360;18.984;2023-03-31T00:22:44;17.85;;;12.52;;
43817;SDS011;29868;47.360;18.984;2023-03-31T00:25:13;22.60;;;13.90;;
43817;SDS011;29868;47.360;18.984;2023-03-31T00:27:42;21.10;;;14.55;;
43817;SDS011;29868;47.360;18.984;2023-03-31T00:30:08;21.35;;;14.30;;
43817;SDS011;29868;47.360;18.984;2023-03-31T00:32:35;20.88;;;13.85;;
43817;SDS011;29868;47.360;18.984;2023-03-31T00:35:01;21.50;;;13.95;;
43817;SDS011;29868;47.360;18.984;2023-03-31T00:37:27;19.73;;;12.27;;
43817;SDS011;29868;47.360;18.984;2023-03-31T00:39:53;16.58;;;11.60;;
43817;SDS011;29868;47.360;18.984;2023-03-31T00:42:19;18.25;;;11.27;;
43817;SDS011;29868;47.360;18.984;2023-03-31T00:47:56;16.63;;;11.20;;
43817;SDS011;29868;47.360;18.984;2023-03-31T00:51:08;77.15;;;58.53;;
43817;SDS011;29868;47.360;18.984;2023-03-31T00:53:29;33.92;;;22.77;;
43817;SDS011;29868;47.360;18.984;2023-03-31T00:55:58;17.35;;;11.52;;
43817;SDS011;29868;47.360;18.984;2023-03-31T00:58:36;15.38;;;9.90;;
43817;SDS011;29868;47.360;18.984;2023-03-31T01:01:07;18.08;;;10.23;;
43817;SDS011;29868;47.360;18.984;2023-03-31T01:03:38;15.95;;;9.70;;
43817;SDS011;29868;47.360;18.984;2023-03-31T01:06:06;16.15;;;9.80;;
43817;SDS011;29868;47.360;18.984;2023-03-31T01:08:34;17.30;;;10.05;;
43817;SDS011;29868;47.360;18.984;2023-03-31T01:11:03;16.40;;;9.90;;
43817;SDS011;29868;47.360;18.984;2023-03-31T01:13:31;16.15;;;9.82;;
43817;SDS011;29868;47.360;18.984;2023-03-31T01:16:00;17.45;;;10.65;;
43817;SDS011;29868;47.360;18.984;2023-03-31T01:18:26;33.63;;;23.88;;
43817;SDS011;29868;47.360;18.984;2023-03-31T01:35:23;17.45;;;10.38;;
43817;SDS011;29868;47.360;18.984;2023-03-31T01:43:54;25.10;;;16.83;;
43817;SDS011;29868;47.360;18.984;2023-03-31T01:47:00;17.10;;;10.02;;
43817;SDS011;29868;47.360;18.984;2023-03-31T01:52:58;17.38;;;9.77;;
43817;SDS011;29868;47.360;18.984;2023-03-31T01:55:39;15.48;;;9.40;;
43817;SDS011;29868;47.360;18.984;2023-03-31T01:58:11;17.77;;;9.05;;
43817;SDS011;29868;47.360;18.984;2023-03-31T02:00:41;14.82;;;8.43;;
43817;SDS011;29868;47.360;18.984;2023-03-31T02:05:57;12.77;;;8.05;;
43817;SDS011;29868;47.360;18.984;2023-03-31T02:08:28;14.02;;;8.85;;
43817;SDS011;29868;47.360;18.984;2023-03-31T02:10:58;14.77;;;8.60;;
43817;SDS011;29868;47.360;18.984;2023-03-31T02:13:24;15.70;;;8.18;;
43817;SDS011;29868;47.360;18.984;2023-03-31T02:15:53;56.25;;;38.28;;
43817;SDS011;29868;47.360;18.984;2023-03-31T07:27:30;8.38;;;4.95;;
43817;SDS011;29868;47.360;18.984;2023-03-31T07:29:56;6.07;;;4.53;;
43817;SDS011;29868;47.360;18.984;2023-03-31T07:32:21;8.38;;;5.50;;
43817;SDS011;29868;47.360;18.984;2023-03-31T07:34:47;6.82;;;4.47;;
43817;SDS011;29868;47.360;18.984;2023-03-31T07:37:13;8.38;;;4.20;;
43817;SDS011;29868;47.360;18.984;2023-03-31T07:39:38;7.93;;;4.40;;
43817;SDS011;29868;47.360;18.984;2023-03-31T07:42:04;7.43;;;4.35;;
43817;SDS011;29868;47.360;18.984;2023-03-31T07:44:31;8.27;;;4.18;;
43817;SDS011;29868;47.360;18.984;2023-03-31T07:47:00;6.00;;;3.97;;
43817;SDS011;29868;47.360;18.984;2023-03-31T07:49:29;6.43;;;4.10;;
43817;SDS011;29868;47.360;18.984;2023-03-31T07:51:55;6.25;;;4.13;;
43817;SDS011;29868;47.360;18.984;2023-03-31T07:54:20;5.97;;;3.97;;
43817;SDS011;29868;47.360;18.984;2023-03-31T07:56:46;6.20;;;4.20;;
43817;SDS011;29868;47.360;18.984;2023-03-31T07:59:11;8.35;;;4.38;;
43817;SDS011;29868;47.360;18.984;2023-03-31T08:01:37;6.07;;;3.83;;
43817;SDS011;29868;47.360;18.984;2023-03-31T08:04:02;10.25;;;4.75;;
43817;SDS011;29868;47.360;18.984;2023-03-31T08:06:28;8.00;;;4.80;;
43817;SDS011;29868;47.360;18.984;2023-03-31T08:08:54;6.72;;;3.63;;
43817;SDS011;29868;47.360;18.984;2023-03-31T08:11:19;5.95;;;3.80;;
43817;SDS011;29868;47.360;18.984;2023-03-31T08:13:45;6.93;;;4.00;;
43817;SDS011;29868;47.360;18.984;2023-03-31T08:16:11;5.50;;;3.80;;
43817;SDS011;29868;47.360;18.984;2023-03-31T08:18:36;6.38;;;3.63;;
43817;SDS011;29868;47.360;18.984;2023-03-31T08:21:02;7.35;;;3.75;;
43817;SDS011;29868;47.360;18.984;2023-03-31T08:23:27;5.78;;;3.92;;
43817;SDS011;29868;47.360;18.984;2023-03-31T08:25:53;6.90;;;3.92;;
43817;SDS011;29868;47.360;18.984;2023-03-31T08:28:18;4.85;;;3.60;;
43817;SDS011;29868;47.360;18.984;2023-03-31T08:30:44;6.85;;;3.45;;
43817;SDS011;29868;47.360;18.984;2023-03-31T08:33:10;6.28;;;3.42;;
43817;SDS011;29868;47.360;18.984;2023-03-31T08:35:39;5.63;;;3.40;;
43817;SDS011;29868;47.360;18.984;2023-03-31T08:38:04;7.20;;;3.35;;
43817;SDS011;29868;47.360;18.984;2023-03-31T08:40:30;6.22;;;3.65;;
43817;SDS011;29868;47.360;18.984;2023-03-31T08:45:29;7.93;;;3.15;;
43817;SDS011;29868;47.360;18.984;2023-03-31T08:47:59;5.65;;;3.08;;
43817;SDS011;29868;47.360;18.984;2023-03-31T08:50:46;6.18;;;3.30;;
43817;SDS011;29868;47.360;18.984;2023-03-31T08:55:49;4.72;;;3.33;;
43817;SDS011;29868;47.360;18.984;2023-03-31T09:01:09;5.63;;;3.70;;
43817;SDS011;29868;47.360;18.984;2023-03-31T09:06:37;4.30;;;2.67;;
43817;SDS011;29868;47.360;18.984;2023-03-31T09:09:06;3.85;;;2.80;;
43817;SDS011;29868;47.360;18.984;2023-03-31T09:11:39;6.97;;;3.25;;
43817;SDS011;29868;47.360;18.984;2023-03-31T09:19:34;4.60;;;2.70;;
43817;SDS011;29868;47.360;18.984;2023-03-31T09:22:05;5.18;;;2.80;;
43817;SDS011;29868;47.360;18.984;2023-03-31T09:24:45;5.43;;;2.85;;
43817;SDS011;29868;47.360;18.984;2023-03-31T09:27:16;4.50;;;3.00;;
43817;SDS011;29868;47.360;18.984;2023-03-31T09:29:44;5.18;;;3.15;;
43817;SDS011;29868;47.360;18.984;2023-03-31T09:32:18;6.03;;;2.90;;
43817;SDS011;29868;47.360;18.984;2023-03-31T09:35:27;5.97;;;3.17;;
43817;SDS011;29868;47.360;18.984;2023-03-31T09:37:49;6.88;;;3.08;;
43817;SDS011;29868;47.360;18.984;2023-03-31T09:40:20;6.00;;;3.10;;
43817;SDS011;29868;47.360;18.984;2023-03-31T09:42:50;6.47;;;3.50;;
43817;SDS011;29868;47.360;18.984;2023-03-31T09:45:22;6.30;;;3.40;;
43817;SDS011;29868;47.360;18.984;2023-03-31T09:47:51;5.97;;;3.28;;
43817;SDS011;29868;47.360;18.984;2023-03-31T09:50:21;4.35;;;3.10;;
43817;SDS011;29868;47.360;18.984;2023-03-31T09:52:48;5.88;;;3.38;;
43817;SDS011;29868;47.360;18.984;2023-03-31T09:55:20;4.65;;;3.10;;
43817;SDS011;29868;47.360;18.984;2023-03-31T09:57:51;5.68;;;3.10;;
43817;SDS011;29868;47.360;18.984;2023-03-31T10:00:18;5.85;;;3.35;;
43817;SDS011;29868;47.360;18.984;2023-03-31T10:02:50;5.60;;;3.33;;
43817;SDS011;29868;47.360;18.984;2023-03-31T10:05:18;4.60;;;3.30;;
43817;SDS011;29868;47.360;18.984;2023-03-31T10:10:33;4.80;;;3.08;;
43817;SDS011;29868;47.360;18.984;2023-03-31T10:12:59;6.55;;;2.97;;
43817;SDS011;29868;47.360;18.984;2023-03-31T10:15:31;5.25;;;3.13;;
43817;SDS011;29868;47.360;18.984;2023-03-31T10:18:02;5.25;;;2.97;;
43817;SDS011;29868;47.360;18.984;2023-03-31T10:20:37;5.88;;;3.50;;
43817;SDS011;29868;47.360;18.984;2023-03-31T10:23:40;7.15;;;3.67;;
43817;SDS011;29868;47.360;18.984;2023-03-31T10:25:59;5.65;;;3.05;;
43817;SDS011;29868;47.360;18.984;2023-03-31T10:28:26;6.25;;;2.90;;
43817;SDS011;29868;47.360;18.984;2023-03-31T10:30:57;7.20;;;3.00;;
43817;SDS011;29868;47.360;18.984;2023-03-31T10:33:30;5.90;;;3.27;;
43817;SDS011;29868;47.360;18.984;2023-03-31T10:35:59;3.92;;;2.90;;
43817;SDS011;29868;47.360;18.984;2023-03-31T10:38:45;4.30;;;2.63;;
43817;SDS011;29868;47.360;18.984;2023-03-31T10:41:23;4.22;;;2.70;;
43817;SDS011;29868;47.360;18.984;2023-03-31T10:43:58;4.97;;;3.50;;
43817;SDS011;29868;47.360;18.984;2023-03-31T10:46:46;6.03;;;3.40;;
43817;SDS011;29868;47.360;18.984;2023-03-31T10:51:48;4.07;;;3.15;;
43817;SDS011;29868;47.360;18.984;2023-03-31T10:54:25;4.63;;;2.60;;
43817;SDS011;29868;47.360;18.984;2023-03-31T10:56:54;3.78;;;2.80;;
43817;SDS011;29868;47.360;18.984;2023-03-31T11:04:54;4.22;;;2.85;;
43817;SDS011;29868;47.360;18.984;2023-03-31T11:07:40;5.50;;;2.75;;
43817;SDS011;29868;47.360;18.984;2023-03-31T11:27:13;3.70;;;2.00;;
43817;SDS011;29868;47.360;18.984;2023-03-31T11:35:19;5.13;;;2.42;;
43817;SDS011;29868;47.360;18.984;2023-03-31T11:43:32;6.00;;;2.47;;
43817;SDS011;29868;47.360;18.984;2023-03-31T11:48:42;3.80;;;2.47;;
43817;SDS011;29868;47.360;18.984;2023-03-31T11:51:19;5.00;;;2.80;;
43817;SDS011;29868;47.360;18.984;2023-03-31T11:53:50;4.40;;;2.45;;
43817;SDS011;29868;47.360;18.984;2023-03-31T11:56:20;5.82;;;2.42;;
43817;SDS011;29868;47.360;18.984;2023-03-31T11:58:59;4.38;;;2.38;;
43817;SDS011;29868;47.360;18.984;2023-03-31T12:01:28;4.57;;;2.30;;
43817;SDS011;29868;47.360;18.984;2023-03-31T12:07:20;5.07;;;2.60;;
43817;SDS011;29868;47.360;18.984;2023-03-31T12:10:30;4.88;;;2.60;;
43817;SDS011;29868;47.360;18.984;2023-03-31T12:13:29;4.55;;;2.58;;
43817;SDS011;29868;47.360;18.984;2023-03-31T12:19:01;5.32;;;2.83;;
43817;SDS011;29868;47.360;18.984;2023-03-31T12:21:52;5.90;;;2.92;;
43817;SDS011;29868;47.360;18.984;2023-03-31T12:24:30;4.32;;;2.42;;
43817;SDS011;29868;47.360;18.984;2023-03-31T12:27:00;3.63;;;2.10;;
43817;SDS011;29868;47.360;18.984;2023-03-31T12:29:43;4.25;;;2.50;;
43817;SDS011;29868;47.360;18.984;2023-03-31T12:32:22;4.75;;;2.70;;
43817;SDS011;29868;47.360;18.984;2023-03-31T12:34:56;5.20;;;3.10;;
43817;SDS011;29868;47.360;18.984;2023-03-31T12:51:11;6.43;;;2.92;;
43817;SDS011;29868;47.360;18.984;2023-03-31T12:57:01;5.28;;;2.80;;
43817;SDS011;29868;47.360;18.984;2023-03-31T12:59:35;4.65;;;2.90;;
43817;SDS011;29868;47.360;18.984;2023-03-31T13:04:33;4.72;;;2.60;;
43817;SDS011;29868;47.360;18.984;2023-03-31T13:07:01;4.75;;;2.58;;
43817;SDS011;29868;47.360;18.984;2023-03-31T13:09:37;4.10;;;2.60;;
43817;SDS011;29868;47.360;18.984;2023-03-31T13:12:12;4.55;;;2.50;;
43817;SDS011;29868;47.360;18.984;2023-03-31T13:17:49;5.43;;;2.42;;
43817;SDS011;29868;47.360;18.984;2023-03-31T13:23:22;5.32;;;2.38;;
43817;SDS011;29868;47.360;18.984;2023-03-31T13:25:53;4.38;;;2.45;;
43817;SDS011;29868;47.360;18.984;2023-03-31T13:30:54;5.03;;;2.30;;
43817;SDS011;29868;47.360;18.984;2023-03-31T13:33:25;5.88;;;2.35;;
43817;SDS011;29868;47.360;18.984;2023-03-31T13:39:02;5.57;;;2.33;;
43817;SDS011;29868;47.360;18.984;2023-03-31T13:50:00;5.07;;;2.55;;
43817;SDS011;29868;47.360;18.984;2023-03-31T14:01:29;3.90;;;2.13;;
43817;SDS011;29868;47.360;18.984;2023-03-31T14:07:11;4.43;;;2.30;;
43817;SDS011;29868;47.360;18.984;2023-03-31T14:09:41;5.00;;;2.00;;
43817;SDS011;29868;47.360;18.984;2023-03-31T14:12:30;6.65;;;2.08;;
43817;SDS011;29868;47.360;18.984;2023-03-31T14:14:57;8.82;;;2.08;;
43817;SDS011;29868;47.360;18.984;2023-03-31T14:17:25;5.03;;;2.28;;
43817;SDS011;29868;47.360;18.984;2023-03-31T14:23:02;4.10;;;1.95;;
43817;SDS011;29868;47.360;18.984;2023-03-31T14:37:00;5.43;;;2.10;;
43817;SDS011;29868;47.360;18.984;2023-03-31T14:39:28;5.00;;;2.28;;
43817;SDS011;29868;47.360;18.984;2023-03-31T14:41:58;4.75;;;2.50;;
43817;SDS011;29868;47.360;18.984;2023-03-31T14:44:26;5.78;;;2.50;;
43817;SDS011;29868;47.360;18.984;2023-03-31T14:46:55;5.97;;;2.30;;
43817;SDS011;29868;47.360;18.984;2023-03-31T14:49:26;4.78;;;2.20;;
43817;SDS011;29868;47.360;18.984;2023-03-31T14:52:00;3.97;;;2.25;;
43817;SDS011;29868;47.360;18.984;2023-03-31T14:54:36;3.35;;;2.10;;
43817;SDS011;29868;47.360;18.984;2023-03-31T14:57:02;4.38;;;2.28;;
43817;SDS011;29868;47.360;18.984;2023-03-31T14:59:30;3.78;;;2.20;;
43817;SDS011;29868;47.360;18.984;2023-03-31T15:01:58;4.03;;;2.15;;
43817;SDS011;29868;47.360;18.984;2023-03-31T15:04:29;3.60;;;1.90;;
43817;SDS011;29868;47.360;18.984;2023-03-31T15:06:59;3.85;;;2.05;;
43817;SDS011;29868;47.360;18.984;2023-03-31T15:09:27;6.45;;;2.10;;
43817;SDS011;29868;47.360;18.984;2023-03-31T15:11:59;2.95;;;1.83;;
43817;SDS011;29868;47.360;18.984;2023-03-31T15:14:31;3.60;;;2.03;;
43817;SDS011;29868;47.360;18.984;2023-03-31T15:17:00;5.25;;;2.30;;
43817;SDS011;29868;47.360;18.984;2023-03-31T15:19:27;5.80;;;2.20;;
43817;SDS011;29868;47.360;18.984;2023-03-31T15:22:00;4.30;;;2.50;;
43817;SDS011;29868;47.360;18.984;2023-03-31T15:24:30;3.88;;;1.98;;
43817;SDS011;29868;47.360;18.984;2023-03-31T15:26:58;5.40;;;2.47;;
43817;SDS011;29868;47.360;18.984;2023-03-31T15:29:35;4.22;;;2.47;;
43817;SDS011;29868;47.360;18.984;2023-03-31T15:32:06;3.40;;;2.10;;
43817;SDS011;29868;47.360;18.984;2023-03-31T15:34:37;6.78;;;2.55;;
43817;SDS011;29868;47.360;18.984;2023-03-31T15:37:05;5.72;;;2.30;;
43817;SDS011;29868;47.360;18.984;2023-03-31T15:39:31;6.88;;;2.40;;
43817;SDS011;29868;47.360;18.984;2023-03-31T15:41:59;4.47;;;2.20;;
43817;SDS011;29868;47.360;18.984;2023-03-31T15:44:43;3.70;;;2.20;;
43817;SDS011;29868;47.360;18.984;2023-03-31T15:47:20;4.97;;;2.25;;
43817;SDS011;29868;47.360;18.984;2023-03-31T15:49:53;4.20;;;2.30;;
43817;SDS011;29868;47.360;18.984;2023-03-31T15:52:28;4.47;;;2.30;;
43817;SDS011;29868;47.360;18.984;2023-03-31T15:54:58;5.20;;;2.80;;
43817;SDS011;29868;47.360;18.984;2023-03-31T15:57:30;3.45;;;2.25;;
43817;SDS011;29868;47.360;18.984;2023-03-31T15:59:57;4.68;;;2.60;;
43817;SDS011;29868;47.360;18.984;2023-03-31T16:02:25;4.68;;;2.40;;
43817;SDS011;29868;47.360;18.984;2023-03-31T16:04:58;3.10;;;2.13;;
43817;SDS011;29868;47.360;18.984;2023-03-31T16:07:25;5.00;;;2.10;;
43817;SDS011;29868;47.360;18.984;2023-03-31T16:12:36;4.65;;;2.03;;
43817;SDS011;29868;47.360;18.984;2023-03-31T16:20:05;3.28;;;1.98;;
43817;SDS011;29868;47.360;18.984;2023-03-31T16:22:42;3.73;;;2.00;;
43817;SDS011;29868;47.360;18.984;2023-03-31T16:25:13;5.13;;;2.10;;
43817;SDS011;29868;47.360;18.984;2023-03-31T16:27:42;3.90;;;1.92;;
43817;SDS011;29868;47.360;18.984;2023-03-31T16:30:12;4.18;;;2.03;;
43817;SDS011;29868;47.360;18.984;2023-03-31T16:37:55;11.27;;;7.63;;
43817;SDS011;29868;47.360;18.984;2023-03-31T16:40:20;7.25;;;4.70;;
43817;SDS011;29868;47.360;18.984;2023-03-31T16:42:46;8.10;;;4.57;;
43817;SDS011;29868;47.360;18.984;2023-03-31T16:45:11;6.50;;;3.28;;
43817;SDS011;29868;47.360;18.984;2023-03-31T16:47:37;8.02;;;4.80;;
43817;SDS011;29868;47.360;18.984;2023-03-31T16:50:03;5.28;;;3.38;;
43817;SDS011;29868;47.360;18.984;2023-03-31T16:52:31;5.13;;;2.72;;
43817;SDS011;29868;47.360;18.984;2023-03-31T16:54:56;37.50;;;10.55;;
43817;SDS011;29868;47.360;18.984;2023-03-31T16:57:22;25.83;;;9.05;;
43817;SDS011;29868;47.360;18.984;2023-03-31T16:59:47;30.67;;;9.65;;
43817;SDS011;29868;47.360;18.984;2023-03-31T17:02:13;31.73;;;9.90;;
43817;SDS011;29868;47.360;18.984;2023-03-31T17:04:38;33.22;;;10.88;;
43817;SDS011;29868;47.360;18.984;2023-03-31T17:07:04;30.90;;;8.88;;
43817;SDS011;29868;47.360;18.984;2023-03-31T17:09:30;35.78;;;10.93;;
43817;SDS011;29868;47.360;18.984;2023-03-31T17:11:55;20.77;;;7.40;;
43817;SDS011;29868;47.360;18.984;2023-03-31T17:14:20;20.55;;;8.20;;
43817;SDS011;29868;47.360;18.984;2023-03-31T17:16:46;23.13;;;8.07;;
43817;SDS011;29868;47.360;18.984;2023-03-31T17:19:11;33.80;;;10.57;;
43817;SDS011;29868;47.360;18.984;2023-03-31T17:21:37;22.55;;;7.90;;
43817;SDS011;29868;47.360;18.984;2023-03-31T17:24:04;19.55;;;6.90;;
43817;SDS011;29868;47.360;18.984;2023-03-31T17:26:31;14.85;;;5.30;;
43817;SDS011;29868;47.360;18.984;2023-03-31T17:28:57;31.20;;;11.02;;
43817;SDS011;29868;47.360;18.984;2023-03-31T17:31:24;18.00;;;7.05;;
43817;SDS011;29868;47.360;18.984;2023-03-31T17:33:50;17.63;;;6.05;;
43817;SDS011;29868;47.360;18.984;2023-03-31T17:36:15;16.30;;;5.82;;
43817;SDS011;29868;47.360;18.984;2023-03-31T17:38:41;17.15;;;6.55;;
43817;SDS011;29868;47.360;18.984;2023-03-31T17:41:08;17.63;;;7.65;;
43817;SDS011;29868;47.360;18.984;2023-03-31T17:43:36;9.48;;;3.97;;
43817;SDS011;29868;47.360;18.984;2023-03-31T17:46:03;7.13;;;3.85;;
43817;SDS011;29868;47.360;18.984;2023-03-31T17:48:31;7.40;;;3.58;;
43817;SDS011;29868;47.360;18.984;2023-03-31T17:51:02;7.38;;;3.55;;
43817;SDS011;29868;47.360;18.984;2023-03-31T17:53:31;6.10;;;3.38;;
43817;SDS011;29868;47.360;18.984;2023-03-31T17:55:58;6.05;;;3.53;;
43817;SDS011;29868;47.360;18.984;2023-03-31T17:58:24;7.85;;;3.20;;
43817;SDS011;29868;47.360;18.984;2023-03-31T18:00:49;5.32;;;2.72;;
43817;SDS011;29868;47.360;18.984;2023-03-31T18:03:16;6.50;;;3.00;;
43817;SDS011;29868;47.360;18.984;2023-03-31T18:05:41;6.30;;;2.70;;
43817;SDS011;29868;47.360;18.984;2023-03-31T18:08:07;7.10;;;3.08;;
43817;SDS011;29868;47.360;18.984;2023-03-31T18:10:32;4.70;;;2.70;;
43817;SDS011;29868;47.360;18.984;2023-03-31T18:12:58;3.95;;;2.40;;
43817;SDS011;29868;47.360;18.984;2023-03-31T18:15:26;6.45;;;2.70;;
43817;SDS011;29868;47.360;18.984;2023-03-31T18:17:51;6.70;;;3.03;;
43817;SDS011;29868;47.360;18.984;2023-03-31T18:20:17;5.40;;;2.70;;
43817;SDS011;29868;47.360;18.984;2023-03-31T18:22:43;6.13;;;2.75;;
43817;SDS011;29868;47.360;18.984;2023-03-31T18:25:09;4.82;;;2.60;;
43817;SDS011;29868;47.360;18.984;2023-03-31T18:27:34;4.40;;;2.67;;
43817;SDS011;29868;47.360;18.984;2023-03-31T18:30:01;4.97;;;2.33;;
43817;SDS011;29868;47.360;18.984;2023-03-31T18:32:27;5.72;;;2.53;;
43817;SDS011;29868;47.360;18.984;2023-03-31T18:34:52;5.32;;;2.67;;
43817;SDS011;29868;47.360;18.984;2023-03-31T18:37:17;5.18;;;2.50;;
43817;SDS011;29868;47.360;18.984;2023-03-31T18:39:43;6.88;;;2.67;;
43817;SDS011;29868;47.360;18.984;2023-03-31T18:42:08;5.72;;;2.70;;
43817;SDS011;29868;47.360;18.984;2023-03-31T18:44:34;6.20;;;2.65;;
43817;SDS011;29868;47.360;18.984;2023-03-31T18:47:00;6.90;;;3.08;;
43817;SDS011;29868;47.360;18.984;2023-03-31T18:49:26;5.13;;;2.65;;
43817;SDS011;29868;47.360;18.984;2023-03-31T18:51:51;6.38;;;3.00;;
43817;SDS011;29868;47.360;18.984;2023-03-31T18:54:17;6.53;;;2.85;;
43817;SDS011;29868;47.360;18.984;2023-03-31T18:56:44;6.90;;;2.95;;
43817;SDS011;29868;47.360;18.984;2023-03-31T18:59:09;5.40;;;2.70;;
43817;SDS011;29868;47.360;18.984;2023-03-31T19:01:35;7.45;;;3.47;;
43817;SDS011;29868;47.360;18.984;2023-03-31T19:04:04;4.78;;;3.08;;
43817;SDS011;29868;47.360;18.984;2023-03-31T19:06:33;10.88;;;4.82;;
43817;SDS011;29868;47.360;18.984;2023-03-31T19:08:58;7.18;;;3.58;;
43817;SDS011;29868;47.360;18.984;2023-03-31T19:11:25;5.43;;;3.45;;
43817;SDS011;29868;47.360;18.984;2023-03-31T19:13:51;6.45;;;3.72;;
43817;SDS011;29868;47.360;18.984;2023-03-31T19:16:19;10.38;;;3.42;;
43817;SDS011;29868;47.360;18.984;2023-03-31T19:18:45;7.07;;;3.50;;
43817;SDS011;29868;47.360;18.984;2023-03-31T19:21:11;5.72;;;3.30;;
43817;SDS011;29868;47.360;18.984;2023-03-31T19:23:37;5.38;;;3.00;;
43817;SDS011;29868;47.360;18.984;2023-03-31T19:26:03;5.35;;;3.28;;
